Time;durP1;ratioP1;P1;durP2;ratioP2;P2;SDS_P1;SDS_P2;PMS_P1;PMS_P2;Temp;Humidity;BMP_temperature;BMP_pressure;BME280_temperature;BME280_humidity;BME280_pressure;Samples;Min_cycle;Max_cycle;Signal;HPM_P1;HPM_P2
2022/10/30 00:02:23;;;;;;;20.40;4.07;;;16.20;99.90;;;;;;5050464;28;20048;-60
2022/10/30 00:04:50;;;;;;;17.88;4.47;;;16.20;99.90;;;;;;5049039;28;20033;-61
2022/10/30 00:07:17;;;;;;;15.77;4.32;;;16.20;99.90;;;;;;5049713;28;20499;-61
2022/10/30 00:09:43;;;;;;;17.95;4.65;;;16.20;99.90;;;;;;5050941;28;20045;-61
2022/10/30 00:12:10;;;;;;;20.60;5.05;;;16.20;99.90;;;;;;5050916;28;20460;-61
2022/10/30 00:14:37;;;;;;;18.48;4.60;;;16.20;99.90;;;;;;5050829;28;20057;-61
2022/10/30 00:17:03;;;;;;;23.63;5.13;;;16.10;99.90;;;;;;5050724;28;20041;-61
2022/10/30 00:19:30;;;;;;;22.08;4.68;;;16.10;99.90;;;;;;5050980;28;20045;-61
2022/10/30 00:21:57;;;;;;;17.02;4.30;;;16.10;99.90;;;;;;5050962;28;20427;-62
2022/10/30 00:24:22;;;;;;;21.35;4.65;;;16.10;99.90;;;;;;5049585;28;20064;-61
2022/10/30 00:26:49;;;;;;;20.98;5.50;;;16.10;99.90;;;;;;5052216;28;20491;-61
2022/10/30 00:29:16;;;;;;;21.60;5.70;;;16.10;99.90;;;;;;5054872;28;20064;-61
2022/10/30 00:31:51;;;;;;;20.70;4.50;;;16.10;99.90;;;;;;5054489;28;20049;-61
2022/10/30 00:34:20;;;;;;;19.58;4.13;;;16.10;99.90;;;;;;5050403;28;20041;-61
2022/10/30 00:36:47;;;;;;;19.55;4.53;;;16.10;99.90;;;;;;5054306;28;20106;-61
2022/10/30 00:39:14;;;;;;;19.48;4.72;;;16.10;99.90;;;;;;5053120;28;20037;-61
2022/10/30 00:41:43;;;;;;;16.75;4.28;;;16.10;99.90;;;;;;5054586;28;20033;-61
2022/10/30 00:44:10;;;;;;;30.90;10.43;;;16.10;99.90;;;;;;5054581;28;20472;-61
2022/10/30 00:46:36;;;;;;;17.20;4.68;;;16.10;99.90;;;;;;5054293;28;20102;-61
2022/10/30 00:49:03;;;;;;;21.33;4.80;;;16.10;99.90;;;;;;5054231;28;20041;-61
2022/10/30 00:51:30;;;;;;;19.00;4.50;;;16.10;99.90;;;;;;5053137;28;20053;-62
2022/10/30 00:53:56;;;;;;;12.68;3.88;;;16.10;99.90;;;;;;5052475;28;20402;-61
2022/10/30 00:56:23;;;;;;;16.13;4.38;;;16.20;99.90;;;;;;5054690;28;20033;-61
2022/10/30 00:58:50;;;;;;;20.65;4.32;;;16.20;99.90;;;;;;5041250;28;20465;-61
2022/10/30 01:01:17;;;;;;;12.88;4.07;;;16.20;99.90;;;;;;5035440;28;20124;-61
2022/10/30 01:03:44;;;;;;;21.05;4.53;;;16.10;99.90;;;;;;5033645;28;20037;-60
2022/10/30 01:06:10;;;;;;;22.67;4.90;;;16.10;99.90;;;;;;5035798;28;20455;-61
2022/10/30 01:08:37;;;;;;;19.52;4.35;;;16.10;99.90;;;;;;5052588;28;20049;-61
2022/10/30 01:11:04;;;;;;;19.83;4.78;;;16.10;99.90;;;;;;5056425;28;20118;-61
2022/10/30 01:13:31;;;;;;;22.27;4.30;;;16.10;99.90;;;;;;5054627;28;20052;-61
2022/10/30 01:15:58;;;;;;;20.55;4.28;;;16.10;99.90;;;;;;5055173;28;20382;-61
2022/10/30 01:18:25;;;;;;;17.75;4.60;;;16.10;99.90;;;;;;5054988;28;20041;-61
2022/10/30 01:20:51;;;;;;;19.23;4.53;;;16.00;99.90;;;;;;5056192;28;20377;-61
2022/10/30 01:23:18;;;;;;;16.33;3.80;;;16.00;99.90;;;;;;5056655;28;20139;-60
2022/10/30 01:25:46;;;;;;;19.55;3.72;;;16.00;99.90;;;;;;5047005;28;20049;-60
2022/10/30 01:28:12;;;;;;;14.43;3.13;;;16.00;99.90;;;;;;5037898;28;20057;-61
2022/10/30 01:30:39;;;;;;;16.70;3.20;;;16.00;99.90;;;;;;5034364;28;20046;-59
2022/10/30 01:33:06;;;;;;;13.65;2.83;;;16.00;99.90;;;;;;5036400;28;20145;-61
2022/10/30 01:35:33;;;;;;;14.70;3.20;;;15.90;99.90;;;;;;5034564;28;20069;-60
2022/10/30 01:37:59;;;;;;;21.20;3.55;;;15.90;99.90;;;;;;5034381;28;20096;-60
2022/10/30 01:40:27;;;;;;;13.93;3.03;;;15.90;99.90;;;;;;5037223;28;20052;-60
2022/10/30 01:42:54;;;;;;;12.27;3.03;;;15.90;99.90;;;;;;5034534;28;20451;-61
2022/10/30 01:45:28;;;;;;;13.55;3.03;;;15.90;99.90;;;;;;5034636;28;20124;-61
2022/10/30 01:47:55;;;;;;;14.77;3.47;;;15.90;99.90;;;;;;5035036;28;20045;-62
2022/10/30 01:50:23;;;;;;;15.93;3.30;;;15.90;99.90;;;;;;5040961;28;20148;-61
2022/10/30 01:52:50;;;;;;;13.65;3.40;;;15.90;99.90;;;;;;5054827;28;20075;-62
2022/10/30 01:55:17;;;;;;;12.32;2.70;;;15.90;99.90;;;;;;5041073;28;20077;-61
2022/10/30 01:57:44;;;;;;;11.68;2.80;;;16.00;99.90;;;;;;5034536;28;20103;-62
2022/10/30 02:00:11;;;;;;;10.73;2.72;;;15.90;99.90;;;;;;5034843;28;20412;-61
2022/10/30 02:02:38;;;;;;;17.63;2.70;;;15.90;99.90;;;;;;5036200;28;20045;-61
2022/10/30 02:05:06;;;;;;;12.43;2.42;;;16.00;99.90;;;;;;5042300;28;20041;-61
2022/10/30 02:07:33;;;;;;;11.07;2.78;;;15.90;99.90;;;;;;5054637;28;20076;-62
2022/10/30 02:10:00;;;;;;;13.90;2.70;;;15.90;99.90;;;;;;5055752;28;20385;-61
2022/10/30 02:12:27;;;;;;;11.30;2.25;;;15.90;99.90;;;;;;5054264;28;20049;-61
2022/10/30 02:14:54;;;;;;;14.43;2.78;;;15.90;99.90;;;;;;5054016;28;20057;-62
2022/10/30 02:17:21;;;;;;;14.18;2.70;;;15.90;99.90;;;;;;5040399;28;20075;-61
2022/10/30 02:19:48;;;;;;;13.00;2.92;;;15.90;99.90;;;;;;5034106;28;20050;-61
2022/10/30 02:22:16;;;;;;;15.77;2.60;;;15.90;99.90;;;;;;5033931;28;20038;-61
2022/10/30 02:24:43;;;;;;;19.45;3.05;;;15.90;99.90;;;;;;5033530;28;20451;-62
2022/10/30 02:27:10;;;;;;;16.65;2.85;;;15.90;99.90;;;;;;5038458;28;20073;-62
2022/10/30 02:29:39;;;;;;;13.82;2.20;;;15.90;99.90;;;;;;5053931;28;20045;-61
2022/10/30 02:32:06;;;;;;;15.43;2.97;;;15.90;99.90;;;;;;5054131;28;20542;-62
2022/10/30 02:34:33;;;;;;;13.32;2.40;;;15.90;99.90;;;;;;5053588;28;20099;-61
2022/10/30 02:37:00;;;;;;;14.95;2.55;;;15.90;99.90;;;;;;5053621;28;20103;-61
2022/10/30 02:39:27;;;;;;;14.68;2.85;;;15.80;99.90;;;;;;5047785;28;20121;-60
2022/10/30 02:41:54;;;;;;;14.73;3.10;;;15.80;99.90;;;;;;5034715;28;20049;-59
2022/10/30 02:44:21;;;;;;;17.08;3.50;;;15.80;99.90;;;;;;5033840;28;20524;-61
2022/10/30 02:46:47;;;;;;;15.13;3.28;;;15.70;99.90;;;;;;5033863;28;20049;-60
2022/10/30 02:49:14;;;;;;;16.45;2.90;;;15.70;99.90;;;;;;5034230;28;20045;-61
2022/10/30 02:51:41;;;;;;;13.27;2.63;;;15.70;99.90;;;;;;5033102;28;20073;-61
2022/10/30 02:54:07;;;;;;;13.63;2.42;;;15.60;99.90;;;;;;5034117;28;20045;-61
2022/10/30 02:56:34;;;;;;;13.95;2.65;;;15.60;99.90;;;;;;5034482;28;20060;-62
2022/10/30 02:59:01;;;;;;;16.52;3.00;;;15.50;99.90;;;;;;5033634;28;20124;-60
2022/10/30 03:01:28;;;;;;;12.85;3.25;;;15.60;99.90;;;;;;5033219;28;20060;-61
2022/10/30 03:03:57;;;;;;;16.15;2.95;;;15.50;99.90;;;;;;5032874;28;20128;-60
2022/10/30 03:06:23;;;;;;;16.30;3.10;;;15.50;99.90;;;;;;5043728;28;20072;-61
2022/10/30 03:08:50;;;;;;;17.77;2.78;;;15.40;99.90;;;;;;5052654;28;20081;-61
2022/10/30 03:11:17;;;;;;;17.10;3.33;;;15.40;99.90;;;;;;5054182;28;20155;-61
2022/10/30 03:13:45;;;;;;;14.18;2.95;;;15.40;99.90;;;;;;5053962;28;20135;-61
2022/10/30 03:16:11;;;;;;;17.85;2.60;;;15.30;99.90;;;;;;5048277;28;20124;-61
2022/10/30 03:18:38;;;;;;;15.32;2.78;;;15.40;99.90;;;;;;5032988;28;20041;-61
2022/10/30 03:21:08;;;;;;;15.45;2.75;;;15.30;99.90;;;;;;5033087;28;20356;-61
2022/10/30 03:23:35;;;;;;;13.45;2.13;;;15.30;99.90;;;;;;5033826;28;20400;-60
2022/10/30 03:26:02;;;;;;;12.18;2.20;;;15.30;99.90;;;;;;5033489;28;20096;-61
2022/10/30 03:28:34;;;;;;;16.38;2.75;;;15.20;99.90;;;;;;5034352;28;20045;-61
2022/10/30 03:31:02;;;;;;;12.32;2.40;;;15.20;99.90;;;;;;5032717;28;20492;-61
2022/10/30 03:33:29;;;;;;;12.35;2.67;;;15.20;99.90;;;;;;5032767;28;20049;-60
2022/10/30 03:35:55;;;;;;;13.38;2.53;;;15.20;99.90;;;;;;5036933;28;20476;-61
2022/10/30 03:38:23;;;;;;;15.57;3.40;;;15.20;99.90;;;;;;5052647;28;20091;-60
2022/10/30 03:40:49;;;;;;;19.35;2.97;;;15.10;99.90;;;;;;5054017;28;20045;-61
2022/10/30 03:43:16;;;;;;;18.25;3.03;;;15.10;99.90;;;;;;5036528;28;20045;-61
2022/10/30 03:45:43;;;;;;;17.17;2.70;;;15.10;99.90;;;;;;5032291;28;20048;-61
2022/10/30 03:48:10;;;;;;;17.77;3.53;;;15.10;99.90;;;;;;5033395;28;20187;-60
2022/10/30 03:50:36;;;;;;;19.60;3.03;;;15.00;99.90;;;;;;5032590;28;20042;-61
2022/10/30 03:53:03;;;;;;;16.23;3.40;;;15.10;99.90;;;;;;5032184;28;20041;-60
2022/10/30 03:55:30;;;;;;;20.73;3.50;;;15.00;99.90;;;;;;5032112;28;20045;-60
2022/10/30 03:57:57;;;;;;;15.70;3.08;;;15.00;99.90;;;;;;5033697;28;20046;-61
2022/10/30 04:00:24;;;;;;;13.77;3.20;;;15.00;99.90;;;;;;5033775;28;20036;-60
2022/10/30 04:02:54;;;;;;;16.27;3.63;;;15.00;99.90;;;;;;5032347;28;20511;-60
2022/10/30 04:05:23;;;;;;;17.83;3.20;;;14.90;99.90;;;;;;5033174;28;20052;-61
2022/10/30 04:07:52;;;;;;;15.23;3.22;;;14.90;99.90;;;;;;5032298;28;20107;-61
2022/10/30 04:10:19;;;;;;;18.38;2.90;;;14.90;99.90;;;;;;5065471;28;20045;-61
2022/10/30 04:12:50;;;;;;;16.65;3.50;;;14.90;99.90;;;;;;5032191;28;20420;-61
2022/10/30 04:15:17;;;;;;;18.13;2.80;;;14.90;99.90;;;;;;5032344;28;20041;-61
2022/10/30 04:17:43;;;;;;;18.63;3.13;;;14.90;99.90;;;;;;5052183;28;20052;-60
2022/10/30 04:20:10;;;;;;;15.93;2.88;;;14.80;99.90;;;;;;5050310;28;20057;-61
2022/10/30 04:22:37;;;;;;;18.63;2.83;;;14.80;99.90;;;;;;5052197;28;20037;-60
2022/10/30 04:25:03;;;;;;;20.13;3.22;;;14.80;99.90;;;;;;5038154;28;20068;-60
2022/10/30 04:27:31;;;;;;;15.95;2.83;;;14.80;99.90;;;;;;5032409;28;20104;-61
2022/10/30 04:29:58;;;;;;;15.43;2.70;;;14.90;99.90;;;;;;5031888;28;20547;-60
2022/10/30 04:32:25;;;;;;;18.33;3.13;;;14.80;99.90;;;;;;5032141;28;20119;-61
2022/10/30 04:34:54;;;;;;;15.82;2.63;;;14.80;99.90;;;;;;5033038;28;20408;-61
2022/10/30 04:37:20;;;;;;;14.05;2.88;;;14.90;99.90;;;;;;5031919;28;20501;-60
2022/10/30 04:39:48;;;;;;;17.27;2.95;;;14.90;99.90;;;;;;5032997;28;20547;-62
2022/10/30 04:42:20;;;;;;;15.00;3.55;;;14.90;99.90;;;;;;5032051;28;20045;-60
2022/10/30 04:44:46;;;;;;;15.25;2.83;;;14.90;99.90;;;;;;5031977;28;20049;-60
2022/10/30 04:47:14;;;;;;;20.00;3.45;;;14.90;99.90;;;;;;5032329;28;20049;-61
2022/10/30 04:49:42;;;;;;;19.83;3.40;;;14.90;99.90;;;;;;5031954;28;20041;-61
2022/10/30 04:52:09;;;;;;;23.27;4.25;;;15.00;99.90;;;;;;5045423;28;20095;-60
2022/10/30 04:54:36;;;;;;;20.77;3.20;;;15.00;99.90;;;;;;5040889;28;20049;-59
2022/10/30 04:57:03;;;;;;;15.57;2.90;;;15.00;99.90;;;;;;5031890;28;20085;-60
2022/10/30 04:59:30;;;;;;;18.65;3.10;;;15.00;99.90;;;;;;5032049;28;20477;-61
2022/10/30 05:01:56;;;;;;;14.88;3.08;;;15.00;99.90;;;;;;5032025;28;20050;-61
2022/10/30 05:04:23;;;;;;;18.08;2.88;;;14.90;99.90;;;;;;5035029;28;20041;-60
2022/10/30 05:06:51;;;;;;;18.73;3.05;;;15.00;99.90;;;;;;5037372;28;20053;-61
2022/10/30 05:09:18;;;;;;;16.27;2.97;;;15.00;99.90;;;;;;5031867;28;20050;-61
2022/10/30 05:11:45;;;;;;;13.00;2.63;;;15.00;99.90;;;;;;5033161;28;20133;-60
2022/10/30 05:14:12;;;;;;;14.73;2.75;;;15.00;99.90;;;;;;5036135;28;20084;-60
2022/10/30 05:16:39;;;;;;;17.77;3.47;;;15.00;99.90;;;;;;5036662;28;20073;-60
2022/10/30 05:19:06;;;;;;;17.85;3.42;;;15.00;99.90;;;;;;5036431;28;20033;-60
2022/10/30 05:21:33;;;;;;;17.77;3.30;;;15.00;99.90;;;;;;5034989;28;20048;-60
2022/10/30 05:24:00;;;;;;;16.60;2.83;;;15.10;99.90;;;;;;5041051;28;20045;-62
2022/10/30 05:26:34;;;;;;;17.15;2.78;;;15.10;99.90;;;;;;5053564;28;20060;-62
2022/10/30 05:29:01;;;;;;;15.38;2.83;;;15.10;99.90;;;;;;5056524;28;20502;-62
2022/10/30 05:31:28;;;;;;;17.80;2.83;;;15.10;99.90;;;;;;5054673;28;20045;-61
2022/10/30 05:34:04;;;;;;;;;;;15.10;99.90;;;;;;5038092;28;20144;-62
2022/10/30 05:36:34;;;;;;;14.82;2.80;;;15.10;99.90;;;;;;5068057;28;19921;-61
2022/10/30 05:39:02;;;;;;;17.00;2.78;;;15.10;99.90;;;;;;5034701;28;20091;-61
2022/10/30 05:41:33;;;;;;;15.90;2.83;;;15.10;99.90;;;;;;5034959;28;20558;-62
2022/10/30 05:44:00;;;;;;;13.63;3.40;;;15.10;99.90;;;;;;5035634;28;20041;-62
2022/10/30 05:46:28;;;;;;;18.63;3.05;;;15.10;99.90;;;;;;5034789;28;20033;-61
2022/10/30 05:49:04;;;;;;;14.80;2.88;;;15.10;99.90;;;;;;5055022;28;20091;-62
2022/10/30 05:51:31;;;;;;;18.50;2.80;;;15.10;99.90;;;;;;5054448;28;20065;-61
2022/10/30 05:54:05;;;;;;;14.25;2.90;;;15.10;99.90;;;;;;5054226;28;20489;-61
2022/10/30 05:56:35;;;;;;;19.08;3.35;;;15.20;99.90;;;;;;5054179;28;20037;-61
2022/10/30 05:59:02;;;;;;;16.63;3.13;;;15.20;99.90;;;;;;5054690;28;20048;-61
2022/10/30 06:01:29;;;;;;;18.98;3.17;;;15.20;99.90;;;;;;5055774;28;20104;-62
2022/10/30 06:03:58;;;;;;;18.38;2.83;;;15.20;99.90;;;;;;5054172;28;20053;-60
2022/10/30 06:06:26;;;;;;;22.45;3.97;;;15.20;99.90;;;;;;5054435;28;20303;-61
2022/10/30 06:08:52;;;;;;;17.92;3.40;;;15.30;99.90;;;;;;5054053;28;20064;-60
2022/10/30 06:11:42;;;;;;;16.90;3.05;;;15.20;99.90;;;;;;5055082;28;20044;-61
2022/10/30 06:14:13;;;;;;;16.95;3.40;;;15.30;99.90;;;;;;5053661;28;20053;-60
2022/10/30 06:16:47;;;;;;;16.02;3.17;;;15.30;99.90;;;;;;5054194;28;20048;-61
2022/10/30 06:19:32;;;;;;;13.30;2.50;;;15.30;99.90;;;;;;5055853;28;20045;-60
2022/10/30 06:22:12;;;;;;;19.42;2.83;;;15.30;99.90;;;;;;5054063;28;20041;-61
2022/10/30 06:24:45;;;;;;;15.45;3.08;;;15.30;99.90;;;;;;5053688;28;20140;-61
2022/10/30 06:27:25;;;;;;;14.75;3.20;;;15.30;99.90;;;;;;5055431;28;20098;-62
2022/10/30 06:29:53;;;;;;;18.48;2.83;;;15.30;99.90;;;;;;5053809;28;20504;-61
2022/10/30 06:32:20;;;;;;;18.98;3.45;;;15.30;99.90;;;;;;5053580;28;20135;-60
2022/10/30 06:34:48;;;;;;;15.15;3.00;;;15.30;99.90;;;;;;5053402;28;20626;-61
2022/10/30 06:37:16;;;;;;;18.17;2.88;;;15.30;99.90;;;;;;5053929;28;20476;-61
2022/10/30 06:39:43;;;;;;;14.20;2.65;;;15.40;99.90;;;;;;5054947;28;20053;-61
2022/10/30 06:42:39;;;;;;;13.75;2.55;;;15.30;99.90;;;;;;5052691;28;20045;-61
2022/10/30 06:45:09;;;;;;;18.92;3.15;;;15.40;99.90;;;;;;5053498;28;20045;-60
2022/10/30 06:47:35;;;;;;;16.40;2.92;;;15.40;99.90;;;;;;5053992;28;20052;-62
2022/10/30 06:50:02;;;;;;;15.57;3.05;;;15.40;99.90;;;;;;5054888;28;20069;-61
2022/10/30 06:52:29;;;;;;;13.27;3.03;;;15.40;99.90;;;;;;5053427;28;20369;-61
2022/10/30 06:54:56;;;;;;;11.75;2.70;;;15.40;99.90;;;;;;5053454;28;20507;-61
2022/10/30 06:57:41;;;;;;;15.32;2.83;;;15.40;99.90;;;;;;5053183;28;20048;-61
2022/10/30 07:00:28;;;;;;;18.55;2.83;;;15.40;99.90;;;;;;5054278;28;20384;-61
2022/10/30 07:03:24;;;;;;;14.77;2.70;;;15.40;99.90;;;;;;5049687;28;20073;-60
2022/10/30 07:05:52;;;;;;;20.08;3.22;;;15.40;99.90;;;;;;5054250;28;20069;-61
2022/10/30 07:08:18;;;;;;;15.13;2.67;;;15.40;99.90;;;;;;5052937;28;20098;-60
2022/10/30 07:10:45;;;;;;;18.77;3.38;;;15.40;99.90;;;;;;5053443;28;20141;-61
2022/10/30 07:13:22;;;;;;;19.05;3.60;;;15.40;99.90;;;;;;5053011;28;20450;-60
2022/10/30 07:15:57;;;;;;;14.48;2.75;;;15.30;99.90;;;;;;5054309;28;20076;-60
2022/10/30 07:18:28;;;;;;;16.17;3.03;;;15.30;99.90;;;;;;5054230;28;20094;-60
2022/10/30 07:20:57;;;;;;;17.05;3.53;;;15.40;99.90;;;;;;5036602;28;20066;-60
2022/10/30 07:23:25;;;;;;;17.90;3.05;;;15.30;99.90;;;;;;5052548;28;20037;-62
2022/10/30 07:25:59;;;;;;;18.52;3.60;;;15.30;99.90;;;;;;5052435;28;20045;-60
2022/10/30 07:28:42;;;;;;;20.25;2.72;;;15.30;99.90;;;;;;5052937;28;20052;-61
2022/10/30 07:31:46;;;;;;;15.10;2.90;;;15.30;99.90;;;;;;5053321;28;20139;-60
2022/10/30 07:34:44;;;;;;;13.70;2.80;;;15.30;99.90;;;;;;5052794;28;20369;-60
2022/10/30 07:37:43;;;;;;;14.20;2.65;;;15.30;99.90;;;;;;5052380;28;20492;-61
2022/10/30 07:40:12;;;;;;;14.20;2.58;;;15.30;99.90;;;;;;5045174;28;20038;-61
2022/10/30 07:43:05;;;;;;;14.80;2.35;;;15.30;99.90;;;;;;5052655;28;20353;-62
2022/10/30 07:45:59;;;;;;;11.35;2.63;;;15.30;99.90;;;;;;5050060;28;20512;-61
2022/10/30 07:48:51;;;;;;;10.80;2.20;;;15.30;99.90;;;;;;5051090;28;20044;-62
2022/10/30 07:51:37;;;;;;;15.13;3.13;;;15.30;99.90;;;;;;5036515;28;20045;-60
2022/10/30 07:54:04;;;;;;;16.42;2.65;;;15.30;99.90;;;;;;5050121;28;20045;-60
2022/10/30 07:56:32;;;;;;;14.98;2.75;;;15.30;99.90;;;;;;5051398;28;20078;-60
2022/10/30 07:59:17;;;;;;;10.90;2.60;;;15.30;99.90;;;;;;5053109;28;20059;-62
2022/10/30 08:01:59;;;;;;;13.95;2.72;;;15.30;99.90;;;;;;5051547;28;20503;-62
2022/10/30 08:04:38;;;;;;;13.25;2.47;;;15.30;99.90;;;;;;5051650;28;20492;-61
2022/10/30 08:07:25;;;;;;;14.65;2.72;;;15.30;99.90;;;;;;5041566;28;20060;-62
2022/10/30 08:09:52;;;;;;;11.10;2.55;;;15.40;99.90;;;;;;5050566;28;20045;-61
2022/10/30 08:12:19;;;;;;;15.57;3.60;;;15.30;99.90;;;;;;5051511;28;20053;-61
2022/10/30 08:14:45;;;;;;;14.30;2.50;;;15.30;99.90;;;;;;5051614;28;20063;-61
2022/10/30 08:17:12;;;;;;;14.35;2.78;;;15.30;99.90;;;;;;5051972;28;20442;-61
2022/10/30 08:19:41;;;;;;;13.68;2.90;;;15.30;99.90;;;;;;5051932;28;20045;-61
2022/10/30 08:22:07;;;;;;;9.93;2.17;;;15.30;99.90;;;;;;5052330;28;20061;-61
2022/10/30 08:24:35;;;;;;;11.85;2.45;;;15.30;99.90;;;;;;5060709;28;20048;-61
2022/10/30 08:27:02;;;;;;;14.18;2.22;;;15.30;99.90;;;;;;5051252;28;20052;-61
2022/10/30 08:29:29;;;;;;;11.82;2.53;;;15.30;99.90;;;;;;5052106;28;20124;-61
2022/10/30 08:31:56;;;;;;;13.45;2.00;;;15.30;99.90;;;;;;5051904;28;20049;-61
2022/10/30 08:34:23;;;;;;;12.10;2.75;;;15.30;99.90;;;;;;5053359;28;20456;-62
2022/10/30 08:36:54;;;;;;;14.40;2.67;;;15.30;99.90;;;;;;5040869;28;20048;-62
2022/10/30 08:39:22;;;;;;;15.20;2.67;;;15.40;99.90;;;;;;5044573;28;20049;-62
2022/10/30 08:42:04;;;;;;;14.05;2.72;;;15.40;99.90;;;;;;5042165;28;20041;-61
2022/10/30 08:44:37;;;;;;;10.90;2.38;;;15.40;99.90;;;;;;5041304;28;20910;-61
2022/10/30 08:47:22;;;;;;;10.32;2.30;;;15.40;99.90;;;;;;5041764;28;20045;-62
2022/10/30 08:49:49;;;;;;;11.45;2.45;;;15.40;99.90;;;;;;5045768;28;20044;-61
2022/10/30 08:52:20;;;;;;;14.70;2.70;;;15.40;99.90;;;;;;5045435;28;20044;-62
2022/10/30 08:54:53;;;;;;;16.27;3.13;;;15.40;99.90;;;;;;5044063;28;20043;-61
2022/10/30 08:57:22;;;;;;;12.23;3.00;;;15.30;99.90;;;;;;5045887;28;20046;-61
2022/10/30 08:59:50;;;;;;;13.45;2.65;;;15.30;99.90;;;;;;5050131;28;20072;-62
2022/10/30 09:02:44;;;;;;;10.90;2.00;;;15.30;99.90;;;;;;5056554;28;20049;-61
2022/10/30 09:05:36;;;;;;;12.07;2.13;;;15.30;99.90;;;;;;5056574;28;20041;-61
2022/10/30 09:08:15;;;;;;;12.75;2.17;;;15.30;99.90;;;;;;5044764;28;20369;-61
2022/10/30 09:11:00;;;;;;;12.23;2.13;;;15.30;99.90;;;;;;5056847;28;20384;-61
2022/10/30 09:13:27;;;;;;;10.73;2.28;;;15.20;99.90;;;;;;5039419;28;20099;-62
2022/10/30 09:15:56;;;;;;;12.00;2.97;;;15.20;99.90;;;;;;5042611;28;20462;-62
2022/10/30 09:18:23;;;;;;;11.00;2.45;;;15.30;99.90;;;;;;5061095;28;20049;-61
2022/10/30 09:20:50;;;;;;;14.30;2.63;;;15.20;99.90;;;;;;5043950;28;20071;-61
2022/10/30 09:23:17;;;;;;;11.27;2.17;;;15.20;99.90;;;;;;5040856;28;20040;-61
2022/10/30 09:25:49;;;;;;;9.85;2.00;;;15.20;99.90;;;;;;5053313;28;20095;-61
2022/10/30 09:28:28;;;;;;;14.63;2.17;;;15.20;99.90;;;;;;5045357;28;20045;-61
2022/10/30 09:31:13;;;;;;;16.60;2.45;;;15.20;99.90;;;;;;5053011;28;20048;-60
2022/10/30 09:33:41;;;;;;;16.90;3.08;;;15.20;99.90;;;;;;5037171;28;20565;-61
2022/10/30 09:36:31;;;;;;;11.70;2.65;;;15.20;99.90;;;;;;5030669;28;20388;-61
2022/10/30 09:38:59;;;;;;;7.93;2.10;;;15.20;99.90;;;;;;5053375;28;20070;-61
2022/10/30 09:41:26;;;;;;;14.63;2.72;;;15.20;99.90;;;;;;5043370;28;20049;-61
2022/10/30 09:43:53;;;;;;;11.77;2.10;;;15.20;99.90;;;;;;5054723;28;20136;-62
2022/10/30 09:46:20;;;;;;;11.00;1.88;;;15.20;99.90;;;;;;5053992;28;20064;-61
2022/10/30 09:48:46;;;;;;;11.77;2.15;;;15.20;99.90;;;;;;5039134;28;20050;-61
2022/10/30 09:51:18;;;;;;;8.70;2.00;;;15.20;99.90;;;;;;5034511;28;20048;-61
2022/10/30 09:53:47;;;;;;;12.90;2.22;;;15.20;99.90;;;;;;5036023;28;20041;-61
2022/10/30 09:56:21;;;;;;;9.95;2.03;;;15.20;99.90;;;;;;5052919;28;20049;-61
2022/10/30 09:58:51;;;;;;;9.80;1.80;;;15.20;99.90;;;;;;5042188;28;20045;-61
2022/10/30 10:01:22;;;;;;;11.35;2.35;;;15.20;99.90;;;;;;5036275;28;20045;-61
2022/10/30 10:04:02;;;;;;;10.25;1.88;;;15.20;99.90;;;;;;5044712;28;20492;-61
2022/10/30 10:06:49;;;;;;;9.77;2.33;;;15.30;99.90;;;;;;5044586;28;20094;-60
2022/10/30 10:09:39;;;;;;;9.93;1.92;;;15.20;99.90;;;;;;5045578;28;20115;-60
2022/10/30 10:12:17;;;;;;;8.70;1.80;;;15.30;99.90;;;;;;5045554;28;20052;-61
2022/10/30 10:14:49;;;;;;;10.90;2.20;;;15.30;99.90;;;;;;5051398;28;20048;-60
2022/10/30 10:17:16;;;;;;;13.10;2.05;;;15.30;99.90;;;;;;5049478;28;20098;-60
2022/10/30 10:19:43;;;;;;;9.23;1.40;;;15.30;99.90;;;;;;5046445;28;20041;-60
2022/10/30 10:22:10;;;;;;;9.02;1.80;;;15.40;99.90;;;;;;5052198;28;20053;-60
2022/10/30 10:24:36;;;;;;;11.02;1.60;;;15.40;99.90;;;;;;5052253;28;20037;-60
2022/10/30 10:27:03;;;;;;;11.45;2.35;;;15.50;99.90;;;;;;5050075;28;20115;-60
2022/10/30 10:29:30;;;;;;;11.70;2.10;;;15.50;99.90;;;;;;5049143;28;20079;-60
2022/10/30 10:31:57;;;;;;;9.23;1.95;;;15.60;99.90;;;;;;5040868;28;20157;-62
2022/10/30 10:34:23;;;;;;;8.98;1.58;;;15.60;99.90;;;;;;5047150;28;20063;-61
2022/10/30 10:36:50;;;;;;;9.50;1.80;;;15.50;99.90;;;;;;5047048;28;20458;-61
2022/10/30 10:39:17;;;;;;;7.13;1.90;;;15.60;99.90;;;;;;5052449;28;20146;-62
2022/10/30 10:41:43;;;;;;;10.60;1.73;;;15.60;99.90;;;;;;5049678;28;20424;-61
2022/10/30 10:44:16;;;;;;;13.27;2.03;;;15.60;99.90;;;;;;5052548;28;20045;-61
2022/10/30 10:46:43;;;;;;;13.15;2.13;;;15.50;99.90;;;;;;5048474;28;20040;-61
2022/10/30 10:49:10;;;;;;;9.57;1.42;;;15.60;99.90;;;;;;5050807;28;20124;-62
2022/10/30 10:51:36;;;;;;;8.57;1.60;;;15.60;99.90;;;;;;5046324;28;20037;-63
2022/10/30 10:54:03;;;;;;;9.82;1.85;;;15.50;99.90;;;;;;5050929;28;20043;-61
2022/10/30 10:56:30;;;;;;;7.40;1.42;;;15.60;99.90;;;;;;5053205;28;20496;-59
2022/10/30 10:58:56;;;;;;;10.82;1.85;;;15.60;99.90;;;;;;5052118;28;20133;-62
2022/10/30 11:01:23;;;;;;;8.27;1.70;;;15.50;99.90;;;;;;5050488;28;20106;-61
2022/10/30 11:03:50;;;;;;;8.63;2.30;;;15.50;99.90;;;;;;5050499;28;20083;-61
2022/10/30 11:06:17;;;;;;;8.70;1.40;;;15.50;99.90;;;;;;5049121;28;20037;-61
2022/10/30 11:08:44;;;;;;;10.27;1.50;;;15.50;99.90;;;;;;5052985;28;20069;-61
2022/10/30 11:11:10;;;;;;;9.25;1.50;;;15.50;99.90;;;;;;5052182;28;20045;-61
2022/10/30 11:13:37;;;;;;;10.15;1.52;;;15.50;99.90;;;;;;5053393;28;20053;-61
2022/10/30 11:16:04;;;;;;;8.07;1.65;;;15.60;99.90;;;;;;5051845;28;20040;-61
2022/10/30 11:18:30;;;;;;;6.20;1.40;;;15.60;99.90;;;;;;5052202;28;20132;-61
2022/10/30 11:20:57;;;;;;;10.75;1.58;;;15.60;99.90;;;;;;5050929;28;20381;-61
2022/10/30 11:23:24;;;;;;;9.60;1.55;;;15.70;99.90;;;;;;5048122;28;20119;-60
2022/10/30 11:25:51;;;;;;;7.00;1.25;;;15.70;99.90;;;;;;5052561;28;20067;-60
2022/10/30 11:28:17;;;;;;;9.02;1.33;;;15.70;99.90;;;;;;5053276;28;20045;-61
2022/10/30 11:30:44;;;;;;;10.02;1.95;;;15.70;99.90;;;;;;5052124;28;20472;-60
2022/10/30 11:33:11;;;;;;;8.73;1.70;;;15.70;99.90;;;;;;5051250;28;20041;-60
2022/10/30 11:35:38;;;;;;;9.98;1.80;;;15.70;99.90;;;;;;5052066;28;20485;-59
2022/10/30 11:38:04;;;;;;;8.18;1.73;;;15.80;99.90;;;;;;5044011;28;20049;-60
2022/10/30 11:40:31;;;;;;;8.43;1.45;;;15.80;99.90;;;;;;5051017;28;20049;-61
2022/10/30 11:42:58;;;;;;;6.32;1.42;;;15.80;99.90;;;;;;5049281;28;20041;-61
2022/10/30 11:45:25;;;;;;;7.47;1.27;;;15.80;99.90;;;;;;5052782;28;20041;-61
2022/10/30 11:47:52;;;;;;;8.60;1.65;;;15.90;99.90;;;;;;5051733;28;20166;-61
2022/10/30 11:50:19;;;;;;;8.73;1.40;;;15.90;99.90;;;;;;5048685;28;20063;-63
2022/10/30 11:52:46;;;;;;;7.88;1.70;;;16.00;99.90;;;;;;5050948;28;20041;-62
2022/10/30 11:55:13;;;;;;;6.18;1.30;;;16.00;99.90;;;;;;5052436;28;20040;-60
2022/10/30 11:57:40;;;;;;;9.27;1.67;;;16.00;99.90;;;;;;5048925;28;20037;-61
2022/10/30 12:00:07;;;;;;;14.25;1.50;;;16.10;99.90;;;;;;5051323;28;20060;-61
2022/10/30 12:02:39;;;;;;;6.78;1.63;;;16.10;99.90;;;;;;5052440;28;20127;-62
2022/10/30 12:05:06;;;;;;;7.72;1.70;;;16.10;99.90;;;;;;5044350;28;20029;-63
2022/10/30 12:07:33;;;;;;;10.20;1.70;;;16.10;99.90;;;;;;5051426;28;20051;-62
2022/10/30 12:10:01;;;;;;;11.70;1.63;;;16.10;99.90;;;;;;5052666;28;20470;-63
2022/10/30 12:12:27;;;;;;;8.75;1.48;;;16.00;99.90;;;;;;5051964;28;20040;-62
2022/10/30 12:14:54;;;;;;;7.22;1.52;;;16.10;99.90;;;;;;5051988;28;20446;-62
2022/10/30 12:17:21;;;;;;;7.53;1.70;;;16.10;99.90;;;;;;5051314;28;20076;-61
2022/10/30 12:19:48;;;;;;;6.32;1.52;;;16.10;99.90;;;;;;5052068;28;20045;-62
2022/10/30 12:22:14;;;;;;;8.80;1.70;;;16.10;99.90;;;;;;5054354;28;20072;-62
2022/10/30 12:24:41;;;;;;;8.20;1.73;;;16.20;99.90;;;;;;5056133;28;20112;-59
2022/10/30 12:27:08;;;;;;;7.45;1.60;;;16.20;99.90;;;;;;5055767;28;20041;-62
2022/10/30 12:29:34;;;;;;;10.68;1.80;;;16.30;99.90;;;;;;5054170;28;20476;-62
2022/10/30 12:32:21;;;;;;;7.50;1.55;;;16.30;99.90;;;;;;5051968;28;20036;-61
2022/10/30 12:34:48;;;;;;;7.05;1.52;;;16.30;99.90;;;;;;5056465;28;20064;-61
2022/10/30 12:37:15;;;;;;;10.88;1.92;;;16.30;99.90;;;;;;5056450;28;20124;-62
2022/10/30 12:39:44;;;;;;;7.60;1.80;;;16.30;99.90;;;;;;5054241;28;20045;-62
2022/10/30 12:42:11;;;;;;;8.02;1.27;;;16.40;99.90;;;;;;5053165;28;20128;-63
2022/10/30 12:44:38;;;;;;;9.40;1.42;;;16.40;99.90;;;;;;5053855;28;20541;-62
2022/10/30 12:47:05;;;;;;;7.32;1.50;;;16.40;99.90;;;;;;5052565;28;20447;-62
2022/10/30 12:49:31;;;;;;;10.07;1.52;;;16.30;99.90;;;;;;5051196;28;20044;-62
2022/10/30 12:51:58;;;;;;;7.53;1.30;;;16.40;99.90;;;;;;5055216;28;20453;-62